Time;durP1;ratioP1;P1;durP2;ratioP2;P2;SDS_P1;SDS_P2;PMS_P1;PMS_P2;Temp;Humidity;BMP_temperature;BMP_pressure;BME280_temperature;BME280_humidity;BME280_pressure;Samples;Min_cycle;Max_cycle;Signal;HPM_P1;HPM_P2
2022/11/07 00:02:02;;;;;;;15.75;7.47;;;;;;;;;;6277711;22;19995;-79
2022/11/07 00:04:28;;;;;;;15.05;6.53;;;;;;;;;;6278804;22;20004;-79
2022/11/07 00:06:54;;;;;;;19.40;9.57;;;;;;;;;;6250377;22;20000;-78
2022/11/07 00:09:20;;;;;;;19.20;10.70;;;;;;;;;;6277803;22;20383;-79
2022/11/07 00:11:47;;;;;;;23.25;13.05;;;;;;;;;;6277076;22;20061;-78
2022/11/07 00:14:13;;;;;;;16.33;8.50;;;;;;;;;;6277411;22;20053;-78
2022/11/07 00:16:40;;;;;;;12.98;6.78;;;;;;;;;;6277712;22;20032;-79
2022/11/07 00:19:06;;;;;;;13.15;6.93;;;;;;;;;;6277058;22;20483;-79
2022/11/07 00:21:32;;;;;;;10.35;5.95;;;;;;;;;;6250123;22;20003;-78
2022/11/07 00:23:58;;;;;;;12.18;6.30;;;;;;;;;;6250532;22;20450;-79
2022/11/07 00:26:24;;;;;;;11.20;6.20;;;;;;;;;;6278083;22;20078;-79
2022/11/07 00:28:50;;;;;;;15.88;6.93;;;;;;;;;;6277690;22;20004;-78
2022/11/07 00:31:16;;;;;;;13.15;5.78;;;;;;;;;;6276965;22;20007;-78
2022/11/07 00:33:43;;;;;;;11.25;5.53;;;;;;;;;;6250570;22;20107;-78
2022/11/07 00:36:10;;;;;;;12.25;6.45;;;;;;;;;;6277597;22;20093;-79
2022/11/07 00:38:36;;;;;;;10.40;6.20;;;;;;;;;;6249622;22;20054;-79
2022/11/07 00:41:04;;;;;;;12.48;6.13;;;;;;;;;;6277834;22;20027;-78
2022/11/07 00:43:30;;;;;;;10.05;5.65;;;;;;;;;;6276091;22;20020;-78
2022/11/07 00:45:56;;;;;;;10.45;5.82;;;;;;;;;;6277493;22;20015;-79
2022/11/07 00:48:23;;;;;;;10.65;5.53;;;;;;;;;;6276965;22;19999;-78
2022/11/07 00:50:49;;;;;;;11.63;6.05;;;;;;;;;;6250217;22;20003;-78
2022/11/07 00:53:15;;;;;;;10.90;5.55;;;;;;;;;;6277778;22;20003;-78
2022/11/07 00:55:41;;;;;;;10.13;5.85;;;;;;;;;;6275952;22;20362;-78
2022/11/07 00:58:07;;;;;;;9.55;5.10;;;;;;;;;;6249373;22;20039;-79
2022/11/07 01:00:33;;;;;;;10.40;5.75;;;;;;;;;;6277059;22;20079;-79
2022/11/07 01:05:43;;;;;;;9.60;5.57;;;;;;;;;;6276332;22;20454;-78
2022/11/07 01:08:09;;;;;;;10.43;5.40;;;;;;;;;;6250499;22;20004;-78
2022/11/07 01:10:40;;;;;;;10.65;5.63;;;;;;;;;;6250051;22;20014;-79
2022/11/07 01:13:06;;;;;;;12.15;5.78;;;;;;;;;;6277092;22;20306;-79
2022/11/07 01:15:32;;;;;;;13.05;6.10;;;;;;;;;;6277061;22;20055;-79
2022/11/07 01:17:58;;;;;;;11.75;6.00;;;;;;;;;;6277189;22;20082;-78
2022/11/07 01:20:24;;;;;;;10.77;5.82;;;;;;;;;;6250116;22;20032;-78
2022/11/07 01:22:50;;;;;;;10.77;5.47;;;;;;;;;;6276504;22;20427;-78
2022/11/07 01:25:16;;;;;;;9.88;5.63;;;;;;;;;;6277001;22;20003;-79
2022/11/07 01:27:42;;;;;;;11.05;6.45;;;;;;;;;;6276529;22;20328;-78
2022/11/07 01:30:08;;;;;;;11.77;6.13;;;;;;;;;;6276725;22;20000;-79
2022/11/07 01:32:34;;;;;;;12.30;5.82;;;;;;;;;;6277015;22;20008;-79
2022/11/07 01:35:00;;;;;;;11.18;4.97;;;;;;;;;;6275860;22;20026;-79
2022/11/07 01:37:26;;;;;;;11.13;5.47;;;;;;;;;;6276662;22;20436;-79
2022/11/07 01:39:52;;;;;;;11.15;5.88;;;;;;;;;;6248945;22;20011;-78
2022/11/07 01:42:18;;;;;;;11.43;5.80;;;;;;;;;;6249779;22;20003;-79
2022/11/07 01:44:48;;;;;;;11.75;5.75;;;;;;;;;;6276512;22;20333;-79
2022/11/07 01:47:15;;;;;;;14.88;6.68;;;;;;;;;;6249357;22;20406;-79
2022/11/07 01:49:41;;;;;;;11.10;6.53;;;;;;;;;;6249772;22;20083;-78
2022/11/07 01:52:09;;;;;;;12.15;5.95;;;;;;;;;;6249547;22;20002;-78
2022/11/07 01:54:45;;;;;;;11.82;5.85;;;;;;;;;;6276044;22;20335;-79
2022/11/07 01:57:16;;;;;;;11.60;6.10;;;;;;;;;;6276790;22;20387;-79
2022/11/07 01:59:42;;;;;;;11.52;5.88;;;;;;;;;;6275922;22;20023;-79
2022/11/07 02:02:08;;;;;;;12.18;6.57;;;;;;;;;;6249588;22;20069;-79
2022/11/07 02:04:34;;;;;;;10.73;6.00;;;;;;;;;;6250115;22;20023;-78
2022/11/07 02:07:02;;;;;;;13.85;6.95;;;;;;;;;;6249999;22;20004;-79
2022/11/07 02:09:28;;;;;;;10.30;5.55;;;;;;;;;;6249874;22;20004;-79
2022/11/07 02:11:59;;;;;;;11.70;6.15;;;;;;;;;;6248990;22;20443;-79
2022/11/07 02:14:26;;;;;;;11.60;5.88;;;;;;;;;;6276712;22;19999;-79
2022/11/07 02:16:52;;;;;;;13.77;6.47;;;;;;;;;;6276633;22;20509;-79
2022/11/07 02:19:25;;;;;;;10.52;5.97;;;;;;;;;;6249747;22;20078;-79
2022/11/07 02:22:11;;;;;;;10.70;6.07;;;;;;;;;;6275505;22;20007;-79
2022/11/07 02:24:38;;;;;;;10.93;5.82;;;;;;;;;;6250103;22;20003;-79
2022/11/07 02:27:06;;;;;;;14.48;6.65;;;;;;;;;;6277043;22;20074;-79
2022/11/07 02:29:34;;;;;;;9.80;5.28;;;;;;;;;;6275159;22;19995;-79
2022/11/07 02:32:04;;;;;;;10.75;5.85;;;;;;;;;;6249465;22;20006;-79
2022/11/07 02:34:30;;;;;;;12.25;6.35;;;;;;;;;;6249929;22;20006;-79
2022/11/07 02:36:57;;;;;;;9.30;6.25;;;;;;;;;;6250444;22;20012;-79
2022/11/07 02:39:23;;;;;;;11.20;6.25;;;;;;;;;;6280113;22;20335;-79
2022/11/07 02:41:50;;;;;;;11.40;6.43;;;;;;;;;;6281041;22;20073;-79
2022/11/07 02:44:16;;;;;;;11.68;5.80;;;;;;;;;;6278794;22;20011;-79
2022/11/07 02:46:42;;;;;;;12.85;6.32;;;;;;;;;;6279175;22;20000;-79
2022/11/07 02:49:08;;;;;;;14.02;6.20;;;;;;;;;;6249651;22;20208;-79
2022/11/07 02:51:34;;;;;;;12.95;7.05;;;;;;;;;;6278343;22;20316;-79
2022/11/07 02:54:00;;;;;;;11.27;6.18;;;;;;;;;;6278174;22;20003;-79
2022/11/07 02:56:26;;;;;;;11.77;6.68;;;;;;;;;;6278454;22;20011;-79
2022/11/07 02:58:52;;;;;;;12.18;6.00;;;;;;;;;;6251036;22;20332;-79
2022/11/07 03:01:19;;;;;;;12.60;6.13;;;;;;;;;;6278284;22;20313;-79
2022/11/07 03:03:47;;;;;;;12.82;7.07;;;;;;;;;;6278507;22;20370;-80
2022/11/07 03:06:14;;;;;;;11.85;6.22;;;;;;;;;;6278612;22;20030;-79
2022/11/07 03:08:41;;;;;;;13.80;7.38;;;;;;;;;;6277421;22;19996;-79
2022/11/07 03:11:08;;;;;;;14.07;6.57;;;;;;;;;;6277811;22;19999;-79
2022/11/07 03:13:34;;;;;;;12.88;7.07;;;;;;;;;;6250574;22;20087;-79
2022/11/07 03:16:03;;;;;;;12.75;6.10;;;;;;;;;;6278842;22;20004;-79
2022/11/07 03:18:29;;;;;;;11.82;7.13;;;;;;;;;;6278107;22;20126;-79
2022/11/07 03:20:55;;;;;;;13.73;6.88;;;;;;;;;;6278422;22;20432;-80
2022/11/07 03:23:21;;;;;;;13.25;6.90;;;;;;;;;;6278871;22;20003;-80
2022/11/07 03:25:47;;;;;;;11.15;7.07;;;;;;;;;;6277917;22;20008;-79
2022/11/07 03:28:13;;;;;;;18.67;7.80;;;;;;;;;;6278476;22;20002;-79
2022/11/07 03:30:39;;;;;;;14.40;7.63;;;;;;;;;;6251607;22;20034;-79
2022/11/07 03:33:05;;;;;;;11.18;6.60;;;;;;;;;;6277145;22;20443;-78
2022/11/07 03:35:31;;;;;;;11.20;6.28;;;;;;;;;;6279019;22;20055;-79
2022/11/07 03:37:57;;;;;;;12.98;6.80;;;;;;;;;;6277748;22;20058;-79
2022/11/07 03:40:23;;;;;;;11.52;6.32;;;;;;;;;;6277845;22;20100;-79
2022/11/07 03:42:49;;;;;;;12.18;6.50;;;;;;;;;;6278536;22;20300;-79
2022/11/07 03:45:16;;;;;;;13.40;6.63;;;;;;;;;;6250848;22;20431;-79
2022/11/07 03:47:43;;;;;;;12.90;7.32;;;;;;;;;;6277114;22;20316;-79
2022/11/07 03:50:10;;;;;;;12.40;6.43;;;;;;;;;;6250363;22;20007;-79
2022/11/07 03:52:37;;;;;;;11.13;6.45;;;;;;;;;;6277095;22;20084;-79
2022/11/07 03:55:03;;;;;;;12.45;6.78;;;;;;;;;;6278220;22;20000;-79
2022/11/07 03:57:29;;;;;;;11.75;6.65;;;;;;;;;;6250465;22;20023;-80
2022/11/07 03:59:55;;;;;;;11.27;7.03;;;;;;;;;;6276055;22;20433;-79
2022/11/07 04:02:22;;;;;;;13.15;6.57;;;;;;;;;;6250047;22;20004;-79
2022/11/07 04:04:48;;;;;;;12.57;6.32;;;;;;;;;;6276774;22;20003;-78
2022/11/07 04:07:15;;;;;;;13.00;6.60;;;;;;;;;;6277974;22;19996;-79
2022/11/07 04:09:41;;;;;;;10.77;6.47;;;;;;;;;;6250994;22;20003;-79
2022/11/07 04:17:38;;;;;;;14.43;6.47;;;;;;;;;;6278402;22;20386;-79
2022/11/07 04:20:04;;;;;;;13.38;8.00;;;;;;;;;;6251133;22;20003;-80
2022/11/07 04:22:30;;;;;;;13.43;7.45;;;;;;;;;;6279070;22;19999;-79
2022/11/07 04:24:56;;;;;;;13.70;7.53;;;;;;;;;;6277184;22;20000;-79
2022/11/07 04:30:18;;;;;;;15.63;8.48;;;;;;;;;;6278734;22;20461;-79
2022/11/07 04:32:47;;;;;;;12.38;6.88;;;;;;;;;;6277249;22;20045;-79
2022/11/07 04:35:13;;;;;;;13.25;8.10;;;;;;;;;;6277718;22;20026;-80
2022/11/07 04:37:40;;;;;;;15.65;8.30;;;;;;;;;;6278565;22;20000;-79
2022/11/07 04:40:06;;;;;;;14.32;8.55;;;;;;;;;;6277182;22;19995;-80
2022/11/07 04:42:32;;;;;;;13.10;7.90;;;;;;;;;;6250583;22;20003;-79
2022/11/07 04:44:58;;;;;;;13.75;8.48;;;;;;;;;;6278379;22;20089;-79
2022/11/07 04:47:24;;;;;;;14.02;8.40;;;;;;;;;;6278179;22;20000;-78
2022/11/07 04:49:50;;;;;;;14.60;8.75;;;;;;;;;;6280943;22;20002;-78
2022/11/07 04:52:16;;;;;;;17.05;10.25;;;;;;;;;;6277427;22;20003;-78
2022/11/07 04:54:42;;;;;;;15.15;8.13;;;;;;;;;;6250546;22;20003;-78
2022/11/07 04:57:08;;;;;;;14.93;8.68;;;;;;;;;;6276619;22;20439;-78
2022/11/07 04:59:34;;;;;;;15.55;8.98;;;;;;;;;;6274434;22;19999;-78
2022/11/07 05:02:01;;;;;;;14.45;8.88;;;;;;;;;;6277295;22;20352;-79
2022/11/07 05:04:27;;;;;;;14.25;8.50;;;;;;;;;;6275780;22;20076;-79
2022/11/07 05:06:53;;;;;;;14.25;8.13;;;;;;;;;;6276662;22;19996;-79
2022/11/07 05:09:19;;;;;;;15.07;8.23;;;;;;;;;;6276674;22;20000;-79
2022/11/07 05:11:46;;;;;;;12.57;6.65;;;;;;;;;;6277345;22;20002;-79
2022/11/07 05:14:12;;;;;;;10.18;6.38;;;;;;;;;;6277150;22;20000;-79
2022/11/07 05:16:38;;;;;;;10.75;6.40;;;;;;;;;;6250438;22;20010;-79
2022/11/07 05:19:04;;;;;;;12.70;6.53;;;;;;;;;;6276624;22;20079;-79
2022/11/07 05:21:30;;;;;;;10.45;5.72;;;;;;;;;;6250211;22;20000;-78
2022/11/07 05:23:56;;;;;;;11.25;5.63;;;;;;;;;;6277781;22;20026;-78
2022/11/07 05:26:22;;;;;;;13.02;6.55;;;;;;;;;;6277084;22;20432;-79
2022/11/07 05:28:48;;;;;;;11.65;6.85;;;;;;;;;;6276960;22;20003;-79
2022/11/07 05:31:16;;;;;;;10.38;6.57;;;;;;;;;;6276282;22;20066;-80
2022/11/07 05:33:42;;;;;;;12.70;6.10;;;;;;;;;;6279913;22;20030;-81
2022/11/07 05:36:26;;;;;;;10.18;6.03;;;;;;;;;;6255371;22;20008;-81
2022/11/07 05:38:53;;;;;;;11.88;6.10;;;;;;;;;;6280769;22;19996;-82
2022/11/07 05:41:20;;;;;;;10.90;5.68;;;;;;;;;;6281352;22;20027;-80
2022/11/07 05:43:47;;;;;;;9.15;5.20;;;;;;;;;;6279109;22;20004;-82
2022/11/07 05:46:13;;;;;;;9.43;4.65;;;;;;;;;;6283523;22;20022;-82
2022/11/07 05:48:40;;;;;;;8.93;4.85;;;;;;;;;;6282037;22;20027;-82
2022/11/07 05:51:07;;;;;;;10.68;5.47;;;;;;;;;;6281926;22;20000;-82
2022/11/07 05:53:34;;;;;;;9.10;5.40;;;;;;;;;;6281541;22;20080;-81
2022/11/07 05:56:00;;;;;;;12.13;6.65;;;;;;;;;;6282196;22;20010;-82
2022/11/07 05:58:26;;;;;;;9.55;5.78;;;;;;;;;;6282211;22;20051;-81
2022/11/07 06:00:52;;;;;;;12.02;6.50;;;;;;;;;;6281100;22;20279;-82
2022/11/07 06:03:21;;;;;;;11.25;5.85;;;;;;;;;;6277808;22;20083;-81
2022/11/07 06:05:47;;;;;;;9.50;5.53;;;;;;;;;;6280227;22;20011;-82
2022/11/07 06:08:13;;;;;;;11.02;6.38;;;;;;;;;;6279679;22;20000;-82
2022/11/07 06:10:40;;;;;;;13.10;7.53;;;;;;;;;;6253691;22;20010;-79
2022/11/07 06:13:07;;;;;;;11.93;6.53;;;;;;;;;;6280622;22;20004;-82
2022/11/07 06:15:34;;;;;;;11.43;7.07;;;;;;;;;;6254388;22;20204;-82
2022/11/07 06:18:04;;;;;;;11.10;6.03;;;;;;;;;;6281071;22;20000;-81
2022/11/07 06:20:30;;;;;;;8.35;4.93;;;;;;;;;;6282843;22;20002;-81
2022/11/07 06:22:57;;;;;;;9.23;5.28;;;;;;;;;;6254727;22;20030;-82
2022/11/07 06:25:23;;;;;;;9.73;4.80;;;;;;;;;;6280800;22;20000;-82
2022/11/07 06:27:49;;;;;;;10.10;5.30;;;;;;;;;;6279911;22;20026;-82
2022/11/07 06:30:15;;;;;;;10.52;5.93;;;;;;;;;;6279569;22;20316;-82
2022/11/07 06:32:43;;;;;;;11.23;6.72;;;;;;;;;;6277814;22;20003;-82
2022/11/07 06:35:10;;;;;;;10.85;6.22;;;;;;;;;;6252577;22;20008;-82
2022/11/07 06:37:36;;;;;;;10.15;6.20;;;;;;;;;;6280033;22;20366;-82
2022/11/07 06:40:02;;;;;;;12.27;8.85;;;;;;;;;;6280638;22;20015;-82
2022/11/07 06:42:28;;;;;;;14.73;8.48;;;;;;;;;;6280952;22;20010;-83
2022/11/07 06:44:54;;;;;;;12.90;8.32;;;;;;;;;;6289203;22;20340;-82
2022/11/07 06:47:20;;;;;;;15.80;10.15;;;;;;;;;;6261547;22;20008;-82
2022/11/07 06:49:46;;;;;;;17.58;10.38;;;;;;;;;;6256511;22;20004;-82
2022/11/07 06:52:12;;;;;;;15.07;9.20;;;;;;;;;;6283186;22;20007;-82
2022/11/07 06:54:38;;;;;;;17.33;9.35;;;;;;;;;;6282617;22;20053;-83
2022/11/07 06:57:04;;;;;;;15.20;9.23;;;;;;;;;;6282701;22;20004;-82
2022/11/07 06:59:30;;;;;;;13.73;8.57;;;;;;;;;;6254256;22;20026;-82
2022/11/07 07:01:56;;;;;;;16.92;9.27;;;;;;;;;;6282297;22;20007;-83
2022/11/07 07:04:22;;;;;;;19.42;11.88;;;;;;;;;;6280814;22;19996;-82
2022/11/07 07:06:48;;;;;;;19.40;11.77;;;;;;;;;;6255973;22;20010;-82
2022/11/07 07:09:14;;;;;;;19.25;11.15;;;;;;;;;;6282361;22;20368;-82
2022/11/07 07:11:41;;;;;;;15.32;9.05;;;;;;;;;;6282097;22;20000;-82
2022/11/07 07:14:07;;;;;;;14.77;9.07;;;;;;;;;;6282231;22;20474;-82
2022/11/07 07:16:34;;;;;;;13.93;9.02;;;;;;;;;;6281241;22;19995;-82
2022/11/07 07:19:00;;;;;;;13.07;8.68;;;;;;;;;;6254288;22;20312;-83
2022/11/07 07:21:26;;;;;;;13.70;8.73;;;;;;;;;;6282971;22;19995;-82
2022/11/07 07:23:52;;;;;;;14.63;8.73;;;;;;;;;;6283327;22;20006;-82
2022/11/07 07:26:18;;;;;;;13.55;8.32;;;;;;;;;;6257756;22;20015;-82
2022/11/07 07:28:44;;;;;;;15.68;9.63;;;;;;;;;;6283730;22;20003;-83
2022/11/07 07:31:13;;;;;;;16.90;9.35;;;;;;;;;;6256611;22;19999;-82
2022/11/07 07:33:39;;;;;;;12.23;7.57;;;;;;;;;;6284010;22;20022;-82
2022/11/07 07:36:05;;;;;;;13.50;8.00;;;;;;;;;;6256443;22;20000;-82
2022/11/07 07:38:31;;;;;;;13.32;7.60;;;;;;;;;;6283214;22;20471;-82
2022/11/07 07:40:58;;;;;;;16.17;9.00;;;;;;;;;;6257199;22;20004;-82
2022/11/07 07:43:24;;;;;;;12.40;7.72;;;;;;;;;;6256297;22;20459;-83
2022/11/07 07:45:50;;;;;;;13.38;8.52;;;;;;;;;;6282772;22;20003;-83
2022/11/07 07:48:16;;;;;;;13.80;8.43;;;;;;;;;;6284010;22;20451;-82
2022/11/07 07:50:42;;;;;;;13.60;7.93;;;;;;;;;;6284906;22;20003;-82
2022/11/07 07:53:08;;;;;;;14.10;7.97;;;;;;;;;;6256739;22;20344;-82
2022/11/07 07:55:35;;;;;;;13.00;8.15;;;;;;;;;;6283163;22;20007;-82
2022/11/07 07:58:01;;;;;;;14.40;8.68;;;;;;;;;;6286210;22;20073;-82
2022/11/07 08:00:27;;;;;;;13.88;8.15;;;;;;;;;;6290166;22;19992;-80
2022/11/07 08:02:59;;;;;;;12.23;7.88;;;;;;;;;;6304256;22;19998;-80
2022/11/07 08:05:25;;;;;;;13.02;8.15;;;;;;;;;;6292486;22;20059;-82
2022/11/07 08:07:51;;;;;;;15.43;9.98;;;;;;;;;;6258454;22;20000;-82
2022/11/07 08:10:18;;;;;;;13.85;8.88;;;;;;;;;;6283578;22;20338;-82
2022/11/07 08:12:45;;;;;;;13.15;7.80;;;;;;;;;;6257875;22;19999;-82
2022/11/07 08:15:11;;;;;;;14.73;8.57;;;;;;;;;;6256563;22;20003;-82
2022/11/07 08:17:38;;;;;;;14.75;8.65;;;;;;;;;;6283686;22;20086;-81
2022/11/07 08:20:04;;;;;;;11.20;6.93;;;;;;;;;;6284910;22;20002;-82
2022/11/07 08:22:30;;;;;;;12.68;7.75;;;;;;;;;;6284243;22;19996;-82
2022/11/07 08:24:56;;;;;;;12.93;7.97;;;;;;;;;;6284003;22;20018;-82
2022/11/07 08:27:22;;;;;;;13.65;7.60;;;;;;;;;;6284287;22;20000;-82
2022/11/07 08:29:48;;;;;;;11.60;6.43;;;;;;;;;;6283888;22;20004;-82
2022/11/07 08:32:14;;;;;;;14.70;7.65;;;;;;;;;;6282814;22;20003;-83
2022/11/07 08:34:40;;;;;;;11.75;7.38;;;;;;;;;;6283578;22;20040;-82
2022/11/07 08:37:06;;;;;;;12.63;7.38;;;;;;;;;;6283698;22;20026;-82
2022/11/07 08:39:32;;;;;;;14.98;7.78;;;;;;;;;;6262853;22;20000;-82
2022/11/07 08:41:58;;;;;;;14.13;9.50;;;;;;;;;;6285951;22;20003;-82
2022/11/07 08:44:24;;;;;;;20.95;17.15;;;;;;;;;;6283153;22;20003;-82
2022/11/07 08:46:50;;;;;;;11.75;7.80;;;;;;;;;;6285004;22;20058;-82
2022/11/07 08:49:16;;;;;;;14.73;8.90;;;;;;;;;;6284034;22;20055;-81
2022/11/07 08:51:42;;;;;;;13.18;7.75;;;;;;;;;;6283910;22;20003;-82
2022/11/07 08:54:08;;;;;;;13.15;8.75;;;;;;;;;;6283496;22;20000;-82
2022/11/07 08:56:34;;;;;;;11.85;7.55;;;;;;;;;;6282326;22;20004;-82
2022/11/07 08:59:00;;;;;;;13.00;7.50;;;;;;;;;;6282960;22;20082;-81
2022/11/07 09:01:26;;;;;;;9.55;6.55;;;;;;;;;;6282580;22;20087;-82
2022/11/07 09:03:52;;;;;;;12.52;6.32;;;;;;;;;;6282236;22;19999;-80
2022/11/07 09:06:18;;;;;;;7.95;4.55;;;;;;;;;;6282126;22;20027;-82
2022/11/07 09:08:44;;;;;;;10.35;4.90;;;;;;;;;;6283749;22;20022;-82
2022/11/07 09:11:11;;;;;;;8.00;4.70;;;;;;;;;;6282850;22;20003;-82
2022/11/07 09:13:37;;;;;;;8.55;4.97;;;;;;;;;;6284048;22;20000;-82
2022/11/07 09:16:04;;;;;;;9.40;4.55;;;;;;;;;;6283280;22;20003;-82
2022/11/07 09:18:31;;;;;;;10.63;5.07;;;;;;;;;;6282120;22;20327;-82
2022/11/07 09:20:57;;;;;;;8.35;4.47;;;;;;;;;;6254628;22;20432;-83
2022/11/07 09:23:24;;;;;;;9.40;5.07;;;;;;;;;;6282973;22;20023;-82
2022/11/07 09:25:50;;;;;;;8.57;4.95;;;;;;;;;;6254882;22;20017;-82
2022/11/07 09:28:16;;;;;;;9.63;5.25;;;;;;;;;;6254514;22;20073;-82
2022/11/07 09:30:42;;;;;;;12.05;5.32;;;;;;;;;;6281691;22;20428;-81
2022/11/07 09:33:08;;;;;;;11.05;5.47;;;;;;;;;;6281356;22;20040;-82
2022/11/07 09:35:34;;;;;;;7.35;4.57;;;;;;;;;;6282842;22;20004;-82
2022/11/07 09:38:00;;;;;;;9.45;4.80;;;;;;;;;;6282322;22;20309;-83
2022/11/07 09:40:40;;;;;;;7.97;4.70;;;;;;;;;;6280586;22;20006;-82
2022/11/07 09:43:12;;;;;;;7.22;4.45;;;;;;;;;;6254580;22;20008;-83
2022/11/07 09:45:57;;;;;;;8.45;4.40;;;;;;;;;;6281776;22;20019;-82
2022/11/07 09:48:23;;;;;;;8.07;4.05;;;;;;;;;;6282480;22;20004;-84
2022/11/07 09:50:50;;;;;;;7.95;4.28;;;;;;;;;;6283078;22;20000;-82
2022/11/07 09:53:16;;;;;;;6.68;3.75;;;;;;;;;;6282228;22;20000;-82
2022/11/07 09:56:02;;;;;;;6.60;3.58;;;;;;;;;;6281013;22;20008;-81
2022/11/07 09:58:40;;;;;;;9.07;5.00;;;;;;;;;;6281885;22;20000;-81
2022/11/07 10:01:11;;;;;;;7.28;4.18;;;;;;;;;;6280371;22;20007;-81
2022/11/07 10:03:37;;;;;;;7.53;3.70;;;;;;;;;;6255128;22;20004;-81
2022/11/07 10:06:23;;;;;;;8.55;4.72;;;;;;;;;;6281774;22;20004;-81
2022/11/07 10:08:58;;;;;;;8.85;5.10;;;;;;;;;;6281691;22;20023;-81
2022/11/07 10:11:30;;;;;;;11.38;5.05;;;;;;;;;;6255603;22;20340;-81
2022/11/07 10:14:11;;;;;;;13.30;4.88;;;;;;;;;;6283050;22;19999;-82
2022/11/07 10:16:59;;;;;;;10.57;5.00;;;;;;;;;;6284245;22;20000;-81
2022/11/07 10:19:32;;;;;;;7.13;4.30;;;;;;;;;;6256993;22;19999;-81
2022/11/07 10:21:58;;;;;;;;;;;;;;;;;;6283134;22;20467;-81
2022/11/07 10:24:30;;;;;;;8.90;5.10;;;;;;;;;;6283181;22;19899;-81
2022/11/07 10:26:57;;;;;;;6.93;4.43;;;;;;;;;;6282212;22;20015;-81
2022/11/07 10:29:25;;;;;;;7.28;4.35;;;;;;;;;;6256177;22;20083;-81
2022/11/07 10:31:55;;;;;;;8.80;4.70;;;;;;;;;;6286753;22;20010;-81
2022/11/07 10:34:28;;;;;;;10.95;5.25;;;;;;;;;;6284107;22;20489;-80
2022/11/07 10:36:54;;;;;;;8.95;5.22;;;;;;;;;;6282441;22;20034;-82
2022/11/07 10:39:20;;;;;;;8.95;5.18;;;;;;;;;;6281003;22;20022;-80
2022/11/07 10:41:51;;;;;;;8.48;4.78;;;;;;;;;;6281893;22;20428;-81
2022/11/07 10:44:23;;;;;;;7.60;4.93;;;;;;;;;;6283472;22;20066;-81
2022/11/07 10:46:49;;;;;;;8.23;5.30;;;;;;;;;;6282105;22;20288;-80
2022/11/07 10:49:15;;;;;;;7.68;4.57;;;;;;;;;;6282008;22;20046;-80
2022/11/07 10:51:42;;;;;;;10.82;5.40;;;;;;;;;;6281824;22;20000;-80
2022/11/07 10:54:19;;;;;;;10.93;4.82;;;;;;;;;;6287835;22;20075;-79
2022/11/07 10:56:46;;;;;;;8.70;4.40;;;;;;;;;;6298554;22;20019;-79
2022/11/07 10:59:13;;;;;;;6.45;4.50;;;;;;;;;;6299511;22;20026;-79
2022/11/07 11:01:39;;;;;;;9.85;4.38;;;;;;;;;;6302676;22;19980;-78
2022/11/07 11:04:05;;;;;;;6.68;4.30;;;;;;;;;;6294339;22;20004;-80
2022/11/07 11:06:32;;;;;;;7.72;4.75;;;;;;;;;;6284111;22;20456;-80
2022/11/07 11:08:58;;;;;;;10.02;5.05;;;;;;;;;;6286056;22;20379;-80
2022/11/07 11:11:27;;;;;;;10.13;6.10;;;;;;;;;;6285928;22;20022;-81
2022/11/07 11:14:05;;;;;;;8.43;4.72;;;;;;;;;;6284590;22;20003;-80
2022/11/07 11:16:33;;;;;;;8.07;4.63;;;;;;;;;;6282319;22;20004;-80
2022/11/07 11:19:01;;;;;;;7.68;4.55;;;;;;;;;;6290184;22;20007;-79
2022/11/07 11:21:37;;;;;;;7.72;4.38;;;;;;;;;;6273795;22;20018;-78
2022/11/07 11:24:11;;;;;;;6.97;3.60;;;;;;;;;;6296691;22;20006;-79
2022/11/07 11:26:39;;;;;;;7.43;3.58;;;;;;;;;;6281342;22;20087;-78
2022/11/07 11:29:08;;;;;;;5.03;2.30;;;;;;;;;;6279082;22;20003;-78
2022/11/07 11:31:34;;;;;;;5.05;2.13;;;;;;;;;;6279701;22;20062;-79
2022/11/07 11:34:05;;;;;;;8.07;2.15;;;;;;;;;;6280997;22;20436;-80
2022/11/07 11:36:35;;;;;;;4.75;2.58;;;;;;;;;;6282169;22;20004;-79
2022/11/07 11:39:02;;;;;;;3.38;1.50;;;;;;;;;;6280271;22;20343;-78
2022/11/07 11:41:35;;;;;;;4.35;2.20;;;;;;;;;;6254219;22;20459;-81
2022/11/07 11:44:20;;;;;;;5.07;1.77;;;;;;;;;;6249478;23;20483;-80
2022/11/07 11:46:52;;;;;;;3.28;1.35;;;;;;;;;;6251328;23;19996;-80
2022/11/07 11:49:23;;;;;;;2.88;1.40;;;;;;;;;;6253033;23;20008;-80
2022/11/07 11:51:53;;;;;;;3.47;1.25;;;;;;;;;;6255236;23;20054;-82
2022/11/07 11:54:19;;;;;;;2.95;1.30;;;;;;;;;;6252061;23;20004;-79
2022/11/07 11:56:45;;;;;;;5.75;1.30;;;;;;;;;;6251209;23;20062;-80
2022/11/07 11:59:20;;;;;;;4.30;1.38;;;;;;;;;;6254740;23;19996;-80
2022/11/07 12:01:49;;;;;;;5.18;1.30;;;;;;;;;;6256192;23;20007;-81
2022/11/07 12:04:27;;;;;;;1.75;0.70;;;;;;;;;;6253000;23;19996;-80
2022/11/07 12:07:08;;;;;;;2.78;1.17;;;;;;;;;;6251385;23;20004;-80
2022/11/07 12:09:44;;;;;;;4.05;1.20;;;;;;;;;;6249703;23;20008;-80
2022/11/07 12:12:28;;;;;;;2.38;1.02;;;;;;;;;;6252078;23;20000;-81
2022/11/07 12:14:54;;;;;;;2.75;1.20;;;;;;;;;;6251579;23;20000;-80
2022/11/07 12:17:27;;;;;;;2.40;0.88;;;;;;;;;;6255659;23;20439;-81
2022/11/07 12:20:02;;;;;;;2.40;0.85;;;;;;;;;;6253672;23;20014;-80
2022/11/07 12:22:28;;;;;;;1.75;0.70;;;;;;;;;;6250317;23;20004;-80
2022/11/07 12:25:17;;;;;;;3.83;1.23;;;;;;;;;;6248356;23;20000;-80
2022/11/07 12:27:48;;;;;;;2.65;0.90;;;;;;;;;;6250324;23;20061;-79
2022/11/07 12:30:21;;;;;;;3.63;1.30;;;;;;;;;;6249324;23;20340;-79
2022/11/07 12:32:47;;;;;;;;;;;;;;;;;;6252573;23;20421;-81
2022/11/07 12:35:34;;;;;;;9.68;2.20;;;;;;;;;;6249155;23;19903;-79
2022/11/07 12:38:21;;;;;;;3.72;1.30;;;;;;;;;;6249004;23;20086;-80
2022/11/07 12:40:47;;;;;;;4.10;1.00;;;;;;;;;;6220444;22;20050;-80
2022/11/07 12:43:31;;;;;;;3.13;1.10;;;;;;;;;;6251319;22;20010;-80
2022/11/07 12:46:13;;;;;;;3.65;1.30;;;;;;;;;;6254805;22;20008;-79
2022/11/07 12:48:59;;;;;;;3.22;1.10;;;;;;;;;;6284964;22;20011;-79
2022/11/07 12:51:26;;;;;;;4.03;1.55;;;;;;;;;;6256874;22;20439;-79
2022/11/07 12:54:11;;;;;;;3.75;1.30;;;;;;;;;;6281392;22;20000;-80
2022/11/07 12:56:38;;;;;;;4.80;1.55;;;;;;;;;;6281118;22;20031;-79
2022/11/07 12:59:08;;;;;;;3.03;1.10;;;;;;;;;;6253137;22;20000;-80
2022/11/07 13:01:58;;;;;;;3.20;1.15;;;;;;;;;;6256575;22;20011;-80
2022/11/07 13:04:32;;;;;;;4.38;1.40;;;;;;;;;;6209366;22;20102;-80
2022/11/07 13:07:04;;;;;;;3.13;1.10;;;;;;;;;;6256323;22;20128;-79
2022/11/07 13:09:38;;;;;;;3.63;0.88;;;;;;;;;;6254504;22;20331;-80
2022/11/07 13:12:16;;;;;;;4.30;1.38;;;;;;;;;;6252258;22;20037;-80
2022/11/07 13:14:44;;;;;;;3.50;1.15;;;;;;;;;;6281038;22;20254;-80
2022/11/07 13:17:15;;;;;;;2.28;0.90;;;;;;;;;;6279397;22;20003;-80
2022/11/07 13:19:43;;;;;;;1.92;0.90;;;;;;;;;;6280003;22;19996;-80
2022/11/07 13:22:15;;;;;;;4.05;1.20;;;;;;;;;;6280549;22;20027;-80
2022/11/07 13:24:50;;;;;;;3.42;1.40;;;;;;;;;;6280038;22;19995;-80
2022/11/07 13:27:24;;;;;;;3.97;1.10;;;;;;;;;;6280196;22;20447;-80
2022/11/07 13:29:50;;;;;;;2.72;1.08;;;;;;;;;;6280602;22;20332;-80
2022/11/07 13:32:16;;;;;;;2.30;0.90;;;;;;;;;;6253807;22;20004;-82
2022/11/07 13:34:51;;;;;;;2.10;0.85;;;;;;;;;;6280216;22;20010;-80
2022/11/07 13:37:20;;;;;;;2.33;0.93;;;;;;;;;;6280609;22;20031;-81
2022/11/07 13:39:47;;;;;;;3.53;1.15;;;;;;;;;;6281224;22;19996;-80
2022/11/07 13:42:15;;;;;;;1.92;0.82;;;;;;;;;;6280465;22;20079;-80
2022/11/07 13:44:42;;;;;;;4.45;1.30;;;;;;;;;;6281277;22;20042;-80
2022/11/07 13:47:14;;;;;;;3.78;1.00;;;;;;;;;;6281911;22;20003;-80
2022/11/07 13:49:46;;;;;;;3.65;0.90;;;;;;;;;;6281700;22;20450;-80
2022/11/07 13:52:32;;;;;;;3.95;0.95;;;;;;;;;;6280984;22;20004;-79
2022/11/07 13:55:10;;;;;;;3.92;0.80;;;;;;;;;;6254237;22;20008;-80
2022/11/07 13:57:41;;;;;;;3.53;1.10;;;;;;;;;;6279647;22;20793;-80
2022/11/07 14:00:13;;;;;;;3.63;1.30;;;;;;;;;;6280822;22;20000;-80
2022/11/07 14:02:39;;;;;;;3.47;1.10;;;;;;;;;;6280187;22;20018;-80
2022/11/07 14:05:06;;;;;;;4.40;0.85;;;;;;;;;;6281409;22;20004;-79
2022/11/07 14:07:36;;;;;;;3.30;0.80;;;;;;;;;;6253631;22;20003;-80
2022/11/07 14:10:03;;;;;;;3.67;0.98;;;;;;;;;;6280522;22;19999;-80
2022/11/07 14:12:29;;;;;;;6.65;1.55;;;;;;;;;;6281547;22;20074;-80
2022/11/07 14:14:57;;;;;;;3.97;1.23;;;;;;;;;;6253323;22;20003;-80
2022/11/07 14:17:33;;;;;;;4.05;1.25;;;;;;;;;;6280283;22;20060;-80
2022/11/07 14:20:06;;;;;;;3.35;1.15;;;;;;;;;;6255060;22;19999;-79
2022/11/07 14:22:32;;;;;;;11.07;2.45;;;;;;;;;;6254162;22;20000;-80
2022/11/07 14:24:58;;;;;;;6.15;1.73;;;;;;;;;;6280458;22;20064;-80
2022/11/07 14:27:24;;;;;;;4.60;1.40;;;;;;;;;;6280299;22;20004;-80
2022/11/07 14:29:51;;;;;;;4.88;1.20;;;;;;;;;;6279568;22;20259;-80
2022/11/07 14:32:18;;;;;;;4.00;1.08;;;;;;;;;;6254010;22;20008;-80
2022/11/07 14:34:45;;;;;;;2.95;1.00;;;;;;;;;;6282038;22;20483;-80
2022/11/07 14:37:13;;;;;;;3.10;1.00;;;;;;;;;;6254259;22;20007;-80
2022/11/07 14:39:40;;;;;;;4.75;1.33;;;;;;;;;;6281069;22;19995;-81
2022/11/07 14:42:06;;;;;;;2.47;1.35;;;;;;;;;;6281216;22;20101;-78
2022/11/07 14:44:38;;;;;;;5.00;1.63;;;;;;;;;;6279691;22;20448;-79
2022/11/07 14:47:07;;;;;;;3.28;1.33;;;;;;;;;;6253688;22;20003;-80
2022/11/07 14:49:33;;;;;;;4.68;1.80;;;;;;;;;;6281256;22;20533;-80
2022/11/07 14:51:59;;;;;;;10.90;3.03;;;;;;;;;;6254526;22;20004;-78
2022/11/07 14:54:32;;;;;;;15.80;3.22;;;;;;;;;;6282539;22;19999;-79